Time;durP1;ratioP1;P1;durP2;ratioP2;P2;SDS_P1;SDS_P2;PMS_P1;PMS_P2;Temp;Humidity;BMP_temperature;BMP_pressure;BME280_temperature;BME280_humidity;BME280_pressure;Samples;Min_cycle;Max_cycle;Signal;HPM_P1;HPM_P2
2022/11/07 00:01:18;;;;;;;15.53;8.40;;;;;;;4.82;91.99;99421.54;1671681;84;20877;-63
2022/11/07 00:03:45;;;;;;;17.85;8.85;;;;;;;4.81;91.98;99413.81;1687663;84;21022;-63
2022/11/07 00:06:11;;;;;;;14.27;8.23;;;;;;;4.81;91.97;99416.39;1698308;84;20890;-63
2022/11/07 00:08:38;;;;;;;12.18;8.20;;;;;;;4.80;91.92;99414.72;1689789;84;21178;-63
2022/11/07 00:11:06;;;;;;;13.38;8.38;;;;;;;4.78;91.89;99411.31;1697000;84;21495;-63
2022/11/07 00:13:33;;;;;;;14.58;7.60;;;;;;;4.75;91.81;99414.83;1687866;83;20947;-63
2022/11/07 00:16:03;;;;;;;17.10;7.17;;;;;;;4.70;91.69;99404.64;1696142;84;24954;-63
2022/11/07 00:18:30;;;;;;;20.05;7.60;;;;;;;4.70;91.81;99405.94;1688232;84;20927;-63
2022/11/07 00:21:02;;;;;;;15.28;8.00;;;;;;;4.69;91.87;99404.22;1698098;84;20993;-63
2022/11/07 00:23:29;;;;;;;14.58;7.65;;;;;;;4.67;91.80;99391.77;1689105;83;20997;-63
2022/11/07 00:26:07;;;;;;;11.97;6.22;;;;;;;4.68;91.85;99390.89;1696693;84;20873;-64
2022/11/07 00:28:37;;;;;;;10.70;6.25;;;;;;;4.70;91.74;99389.13;1673584;84;21006;-63
2022/11/07 00:31:06;;;;;;;11.30;6.30;;;;;;;4.70;91.71;99388.25;1672382;84;20991;-63
2022/11/07 00:33:33;;;;;;;14.65;6.62;;;;;;;4.70;91.69;99377.91;1689921;83;21476;-63
2022/11/07 00:36:00;;;;;;;11.22;6.12;;;;;;;4.71;91.63;99377.88;1698098;84;21740;-63
2022/11/07 00:38:27;;;;;;;10.80;6.55;;;;;;;4.69;91.43;99377.06;1678448;84;20942;-63
2022/11/07 00:40:58;;;;;;;18.10;6.80;;;;;;;4.68;91.41;99368.91;1698952;84;20942;-64
2022/11/07 00:43:25;;;;;;;11.20;5.58;;;;;;;4.67;91.48;99367.65;1688683;83;20914;-63
2022/11/07 00:45:53;;;;;;;13.98;6.10;;;;;;;4.66;91.38;99368.10;1699606;83;20909;-64
2022/11/07 00:48:19;;;;;;;16.32;6.22;;;;;;;4.67;91.37;99362.48;1670952;85;21053;-63
2022/11/07 00:50:46;;;;;;;11.43;6.20;;;;;;;4.66;91.40;99364.22;1670535;84;20967;-63
2022/11/07 00:53:13;;;;;;;12.73;5.80;;;;;;;4.67;91.37;99363.31;1671281;84;20943;-63
2022/11/07 00:55:40;;;;;;;15.23;6.23;;;;;;;4.63;91.32;99360.44;1671740;84;21009;-63
2022/11/07 00:58:06;;;;;;;10.63;6.27;;;;;;;4.54;91.19;99343.90;1696266;83;20969;-63
2022/11/07 01:00:33;;;;;;;12.30;6.45;;;;;;;4.54;91.19;99343.90;1666250;86;21990;-63
2022/11/07 01:05:58;;;;;;;16.60;6.55;;;;;;;4.67;91.07;99352.13;1687172;84;20930;-64
2022/11/07 01:08:25;;;;;;;10.90;5.85;;;;;;;4.67;90.99;99347.80;1691165;83;21017;-63
2022/11/07 01:10:52;;;;;;;12.03;5.30;;;;;;;4.67;91.08;99347.80;1695767;83;21507;-63
2022/11/07 01:13:18;;;;;;;9.53;5.78;;;;;;;4.65;91.07;99334.51;1679256;84;21139;-63
2022/11/07 01:15:45;;;;;;;8.95;5.65;;;;;;;4.67;91.21;99332.73;1688476;83;20981;-63
2022/11/07 01:18:12;;;;;;;12.03;6.27;;;;;;;4.70;91.20;99324.46;1696610;83;20957;-63
2022/11/07 01:20:39;;;;;;;12.70;6.30;;;;;;;4.73;91.30;99325.24;1671127;84;20924;-64
2022/11/07 01:23:07;;;;;;;11.95;6.00;;;;;;;4.75;91.19;99313.96;1688804;84;20958;-63
2022/11/07 01:25:37;;;;;;;16.20;6.45;;;;;;;4.70;91.44;99311.53;1679835;84;21129;-63
2022/11/07 01:28:04;;;;;;;13.32;6.53;;;;;;;4.73;91.49;99314.89;1691214;83;20946;-63
2022/11/07 01:30:31;;;;;;;;;;;;;;;4.74;91.64;99315.32;1663096;85;20963;-63
2022/11/07 01:32:57;;;;;;;12.20;6.95;;;;;;;4.73;91.89;99305.84;1661210;86;20740;-64
2022/11/07 01:35:24;;;;;;;12.37;6.85;;;;;;;4.76;91.97;99297.99;1655489;85;21497;-63
2022/11/07 01:37:51;;;;;;;14.80;7.60;;;;;;;4.81;92.06;99288.36;1674870;85;21293;-64
2022/11/07 01:40:17;;;;;;;15.05;8.13;;;;;;;4.86;92.13;99290.36;1660937;85;21171;-63
2022/11/07 01:42:44;;;;;;;16.33;7.60;;;;;;;4.93;92.32;99285.41;1673606;84;21489;-63
2022/11/07 01:45:27;;;;;;;14.35;7.37;;;;;;;4.97;92.69;99293.46;1659747;85;22091;-64
2022/11/07 01:47:58;;;;;;;11.80;7.78;;;;;;;5.10;92.52;99293.48;1672297;84;20971;-63
2022/11/07 01:50:25;;;;;;;16.55;7.85;;;;;;;5.13;92.47;99293.38;1671899;85;21365;-63
2022/11/07 01:52:54;;;;;;;14.40;7.72;;;;;;;5.20;92.37;99282.83;1674893;85;21503;-64
2022/11/07 01:55:30;;;;;;;12.78;7.83;;;;;;;5.28;92.39;99282.13;1658757;85;20922;-64
2022/11/07 01:58:04;;;;;;;13.83;7.30;;;;;;;5.37;92.43;99268.87;1672688;85;20915;-63
2022/11/07 02:00:32;;;;;;;16.70;8.03;;;;;;;5.45;92.42;99266.88;1646351;87;20967;-63
2022/11/07 02:03:09;;;;;;;11.10;7.62;;;;;;;5.50;92.37;99266.28;1646789;87;21047;-63
2022/11/07 02:05:43;;;;;;;14.90;7.83;;;;;;;5.53;92.29;99262.29;1658150;85;20958;-64
2022/11/07 02:08:12;;;;;;;12.53;8.23;;;;;;;5.54;92.33;99261.37;1680257;83;20963;-64
2022/11/07 02:10:40;;;;;;;14.63;8.03;;;;;;;5.56;92.33;99262.19;1662354;85;21449;-63
2022/11/07 02:13:07;;;;;;;20.90;7.80;;;;;;;5.59;92.29;99254.30;1658298;84;21421;-63
2022/11/07 02:15:34;;;;;;;15.95;8.43;;;;;;;5.62;92.34;99250.77;1660309;85;21062;-64
2022/11/07 02:18:01;;;;;;;17.15;8.93;;;;;;;5.65;92.39;99255.00;1673006;85;20986;-63
2022/11/07 02:20:28;;;;;;;18.27;9.35;;;;;;;5.67;92.30;99248.03;1648238;86;20879;-63
2022/11/07 02:23:00;;;;;;;17.07;9.17;;;;;;;5.67;92.28;99248.03;1661662;86;20974;-63
2022/11/07 02:25:26;;;;;;;17.15;8.90;;;;;;;5.68;92.38;99239.34;1671516;85;20967;-64
2022/11/07 02:27:57;;;;;;;21.52;9.38;;;;;;;5.71;92.43;99232.77;1656074;85;21043;-63
2022/11/07 02:30:33;;;;;;;19.62;9.85;;;;;;;5.72;92.39;99230.59;1698107;83;20944;-63
2022/11/07 02:33:00;;;;;;;16.35;8.65;;;;;;;5.73;92.37;99227.08;1689878;84;21492;-63
2022/11/07 02:35:49;;;;;;;14.68;9.15;;;;;;;5.74;92.31;99239.13;1699545;83;20871;-63
2022/11/07 02:38:32;;;;;;;19.87;9.90;;;;;;;5.72;92.40;99243.53;1691354;84;21737;-63
2022/11/07 02:41:12;;;;;;;24.23;8.85;;;;;;;5.73;92.51;99236.16;1697547;83;21072;-64
2022/11/07 02:43:43;;;;;;;18.15;8.83;;;;;;;5.75;92.53;99235.66;1702841;84;20950;-64
2022/11/07 02:46:12;;;;;;;16.07;9.45;;;;;;;5.76;92.56;99226.97;1683863;83;20907;-64
2022/11/07 02:48:50;;;;;;;16.02;9.83;;;;;;;5.78;92.52;99238.13;1694446;83;20950;-63
2022/11/07 02:51:17;;;;;;;15.13;9.30;;;;;;;5.77;92.41;99233.83;1686591;83;20990;-64
2022/11/07 02:53:43;;;;;;;22.15;10.72;;;;;;;5.76;92.45;99229.56;1675039;84;21068;-63
2022/11/07 02:56:10;;;;;;;20.02;10.95;;;;;;;5.75;92.50;99240.84;1688827;84;20938;-64
2022/11/07 02:58:37;;;;;;;21.10;11.45;;;;;;;5.76;92.57;99245.11;1679174;84;20938;-64
2022/11/07 03:01:07;;;;;;;20.50;10.55;;;;;;;5.76;92.33;99240.77;1679736;84;20977;-64
2022/11/07 03:03:41;;;;;;;20.35;11.33;;;;;;;5.74;92.26;99243.02;1675832;85;20886;-64
2022/11/07 03:06:10;;;;;;;23.42;11.73;;;;;;;5.71;92.35;99237.48;1699965;83;21168;-64
2022/11/07 03:08:37;;;;;;;18.75;11.33;;;;;;;5.71;92.40;99239.23;1679449;84;20935;-64
2022/11/07 03:11:05;;;;;;;19.60;11.93;;;;;;;5.69;92.31;99235.88;1693596;83;21504;-64
2022/11/07 03:13:31;;;;;;;25.05;13.25;;;;;;;5.68;92.38;99225.10;1690365;83;21467;-63
2022/11/07 03:15:58;;;;;;;17.77;11.65;;;;;;;5.67;92.38;99227.30;1693847;83;21531;-63
2022/11/07 03:18:26;;;;;;;23.45;12.40;;;;;;;5.66;92.41;99220.41;1693980;83;21867;-64
2022/11/07 03:20:52;;;;;;;;;;;;;;;5.65;92.41;99216.14;1696991;84;20899;-64
2022/11/07 03:23:19;;;;;;;18.60;12.60;;;;;;;5.63;92.46;99218.81;1690374;83;20111;-63
2022/11/07 03:25:46;;;;;;;21.23;12.98;;;;;;;5.63;92.37;99215.34;1692132;84;21484;-63
2022/11/07 03:28:12;;;;;;;24.30;12.07;;;;;;;5.61;92.37;99208.48;1693111;83;20930;-64
2022/11/07 03:30:39;;;;;;;20.02;11.95;;;;;;;5.63;92.40;99201.10;1675556;84;21079;-63
2022/11/07 03:33:06;;;;;;;18.32;11.45;;;;;;;5.60;92.44;99188.68;1676995;85;20892;-64
2022/11/07 03:35:33;;;;;;;16.60;11.55;;;;;;;5.54;92.68;99191.45;1667043;85;20919;-63
2022/11/07 03:38:00;;;;;;;18.77;11.40;;;;;;;5.55;92.77;99194.47;1670436;84;20935;-64
2022/11/07 03:40:27;;;;;;;20.27;12.43;;;;;;;5.59;92.53;99194.73;1674684;85;21131;-63
2022/11/07 03:42:53;;;;;;;15.10;10.87;;;;;;;5.59;92.43;99194.73;1672773;84;21193;-63
2022/11/07 03:45:20;;;;;;;18.00;11.30;;;;;;;5.59;92.46;99199.92;1673260;85;20959;-63
2022/11/07 03:47:47;;;;;;;19.80;11.43;;;;;;;5.55;92.58;99199.64;1668847;84;21518;-65
2022/11/07 03:50:18;;;;;;;16.30;10.93;;;;;;;5.56;92.45;99205.20;1649074;85;21120;-64
2022/11/07 03:52:45;;;;;;;18.73;11.53;;;;;;;5.54;92.34;99197.93;1660893;84;21432;-63
2022/11/07 03:55:14;;;;;;;18.90;9.80;;;;;;;5.52;92.28;99198.46;1666291;85;21242;-63
2022/11/07 03:57:41;;;;;;;17.92;10.65;;;;;;;5.49;92.22;99205.05;1681530;85;20970;-63
2022/11/07 04:00:09;;;;;;;18.17;10.72;;;;;;;5.42;92.41;99212.61;1676749;84;21449;-63
2022/11/07 04:02:36;;;;;;;14.65;10.85;;;;;;;5.41;92.48;99218.70;1665571;85;21487;-63
2022/11/07 04:05:03;;;;;;;16.10;11.30;;;;;;;5.38;92.51;99214.47;1665050;85;21054;-63
2022/11/07 04:07:29;;;;;;;17.77;11.50;;;;;;;5.37;92.49;99218.39;1647989;86;21822;-64
2022/11/07 04:09:56;;;;;;;20.97;11.93;;;;;;;5.35;92.55;99213.73;1667272;86;20904;-63
2022/11/07 04:17:54;;;;;;;16.47;10.90;;;;;;;5.26;93.04;99188.98;1664094;85;20931;-63
2022/11/07 04:20:21;;;;;;;18.17;11.60;;;;;;;5.28;92.90;99199.30;1661514;85;21041;-63
2022/11/07 04:22:48;;;;;;;17.42;11.35;;;;;;;5.31;92.72;99205.20;1666562;85;20931;-63
2022/11/07 04:25:14;;;;;;;20.48;11.22;;;;;;;5.24;92.89;99191.25;1664348;85;20911;-63
2022/11/07 04:27:41;;;;;;;19.30;12.47;;;;;;;5.27;92.83;99184.67;1667809;84;21013;-63
2022/11/07 04:30:17;;;;;;;20.17;12.47;;;;;;;5.31;92.71;99170.72;1672205;84;21487;-63
2022/11/07 04:32:49;;;;;;;17.48;11.78;;;;;;;5.28;92.74;99163.06;1657451;85;21140;-63
2022/11/07 04:35:17;;;;;;;20.30;12.85;;;;;;;5.29;92.74;99162.15;1679201;84;20910;-64
2022/11/07 04:37:44;;;;;;;19.07;13.08;;;;;;;5.26;92.70;99166.14;1678282;84;20963;-63
2022/11/07 04:40:11;;;;;;;23.18;13.18;;;;;;;5.22;92.72;99158.09;1680277;84;20882;-63
2022/11/07 04:42:38;;;;;;;15.03;10.90;;;;;;;5.20;92.79;99162.47;1675134;84;20977;-64
2022/11/07 04:45:06;;;;;;;23.62;13.43;;;;;;;5.18;92.86;99146.14;1679363;84;21159;-64
2022/11/07 04:47:33;;;;;;;19.87;12.85;;;;;;;5.16;92.83;99141.88;1678169;84;20994;-63
2022/11/07 04:49:59;;;;;;;21.70;13.75;;;;;;;5.11;92.93;99138.59;1677663;84;20981;-63
2022/11/07 04:52:26;;;;;;;20.17;12.97;;;;;;;5.10;93.04;99141.25;1675654;84;21878;-63
2022/11/07 04:54:53;;;;;;;22.73;14.13;;;;;;;5.07;92.95;99147.37;1676982;84;20977;-63
2022/11/07 04:57:19;;;;;;;22.35;14.18;;;;;;;5.06;93.04;99143.08;1675396;84;21872;-63
2022/11/07 04:59:46;;;;;;;19.87;15.20;;;;;;;5.07;92.88;99135.73;1678273;84;20954;-63
2022/11/07 05:02:13;;;;;;;25.08;15.85;;;;;;;5.01;92.96;99135.91;1677593;84;21021;-63
2022/11/07 05:04:40;;;;;;;25.30;16.52;;;;;;;5.03;92.81;99138.02;1678764;85;20966;-63
2022/11/07 05:07:07;;;;;;;25.25;15.23;;;;;;;5.01;92.72;99126.86;1679375;85;20943;-63
2022/11/07 05:09:35;;;;;;;23.07;16.55;;;;;;;4.97;92.75;99135.64;1678075;84;21199;-64
2022/11/07 05:12:01;;;;;;;22.85;15.53;;;;;;;4.96;92.71;99140.84;1678129;84;20993;-63
2022/11/07 05:14:30;;;;;;;25.05;16.65;;;;;;;4.91;92.76;99128.09;1675511;85;21392;-63
2022/11/07 05:16:57;;;;;;;23.47;16.97;;;;;;;4.90;92.70;99141.90;1677615;84;21507;-64
2022/11/07 05:19:24;;;;;;;22.17;15.13;;;;;;;4.88;92.66;99141.13;1675724;85;21498;-64
2022/11/07 05:23:10;;;;;;;27.37;16.60;;;;;;;4.81;92.70;99140.47;1672691;84;21106;-63
2022/11/07 05:24:18;;;;;;;22.58;15.83;;;;;;;4.81;92.80;99139.63;1673081;84;20954;-63
2022/11/07 05:26:45;;;;;;;21.93;15.38;;;;;;;4.79;92.74;99142.28;1678067;84;20911;-63
2022/11/07 05:29:12;;;;;;;24.60;16.23;;;;;;;4.78;92.77;99139.28;1673266;84;20972;-63
2022/11/07 05:31:39;;;;;;;22.65;16.45;;;;;;;4.79;92.68;99133.66;1673697;84;20997;-63
2022/11/07 05:34:05;;;;;;;22.77;16.47;;;;;;;4.63;93.17;99141.92;1678677;84;21140;-64
2022/11/07 05:36:32;;;;;;;19.80;15.48;;;;;;;4.63;93.50;99125.58;1674395;84;20950;-63
2022/11/07 05:38:58;;;;;;;25.25;16.07;;;;;;;4.68;92.98;99125.81;1678770;84;20941;-63
2022/11/07 05:41:25;;;;;;;23.52;16.73;;;;;;;4.71;92.90;99126.17;1674640;84;21009;-63
2022/11/07 05:43:52;;;;;;;22.27;16.12;;;;;;;4.69;92.90;99128.79;1677683;84;21035;-63
2022/11/07 05:46:18;;;;;;;25.32;17.50;;;;;;;4.68;92.91;99121.10;1672535;84;21080;-62
2022/11/07 05:48:45;;;;;;;23.52;16.05;;;;;;;4.65;92.93;99122.05;1677264;84;20957;-63
2022/11/07 05:51:12;;;;;;;23.37;16.23;;;;;;;4.66;92.96;99123.72;1677870;85;20984;-66
2022/11/07 05:53:39;;;;;;;20.83;15.83;;;;;;;4.65;93.02;99124.63;1678451;85;20898;-63
2022/11/07 05:56:06;;;;;;;21.37;16.50;;;;;;;4.64;93.03;99120.33;1676714;84;21046;-64
2022/11/07 05:58:33;;;;;;;26.42;17.50;;;;;;;4.66;93.02;99131.48;1676254;84;20999;-64
2022/11/07 06:01:06;;;;;;;24.87;17.87;;;;;;;4.64;93.03;99125.50;1678405;83;20926;-64
2022/11/07 06:03:33;;;;;;;27.22;18.77;;;;;;;4.63;93.07;99121.23;1675438;84;21623;-63
2022/11/07 06:06:01;;;;;;;22.70;17.47;;;;;;;4.62;93.07;99129.91;1679487;84;21020;-63
2022/11/07 06:08:29;;;;;;;23.85;17.50;;;;;;;4.53;93.03;99104.78;1686580;83;21473;-64
2022/11/07 06:10:56;;;;;;;28.07;20.23;;;;;;;4.60;93.08;99129.10;1671026;84;21869;-63
2022/11/07 06:13:22;;;;;;;29.60;19.80;;;;;;;4.59;93.09;99131.72;1673310;84;20898;-64
2022/11/07 06:15:49;;;;;;;27.93;20.23;;;;;;;4.58;93.13;99133.47;1676147;84;20981;-64
2022/11/07 06:18:19;;;;;;;25.73;19.37;;;;;;;4.57;93.09;99125.77;1677513;83;21484;-64
2022/11/07 06:20:46;;;;;;;28.20;18.98;;;;;;;4.54;93.13;99137.06;1674030;83;20977;-64
2022/11/07 06:23:13;;;;;;;26.77;20.35;;;;;;;4.54;93.15;99130.59;1673411;84;21836;-64
2022/11/07 06:25:40;;;;;;;26.42;18.52;;;;;;;4.51;93.16;99139.74;1674760;84;21657;-63
2022/11/07 06:28:10;;;;;;;30.97;20.00;;;;;;;4.50;93.15;99127.69;1679630;83;20954;-64
2022/11/07 06:30:37;;;;;;;31.35;20.05;;;;;;;4.49;93.21;99126.02;1668393;83;21792;-64
2022/11/07 06:33:10;;;;;;;27.85;21.23;;;;;;;4.50;93.39;99130.28;1657405;84;20958;-63
2022/11/07 06:35:37;;;;;;;31.82;21.12;;;;;;;4.52;93.50;99131.08;1659093;85;21087;-63
2022/11/07 06:38:09;;;;;;;28.62;19.30;;;;;;;4.57;93.47;99130.95;1660300;85;21509;-64
2022/11/07 06:40:36;;;;;;;29.05;20.65;;;;;;;4.60;93.56;99142.48;1656698;86;20981;-63
2022/11/07 06:43:16;;;;;;;29.12;20.45;;;;;;;4.62;93.57;99135.08;1673569;85;20927;-62
2022/11/07 06:45:46;;;;;;;29.75;20.23;;;;;;;4.65;93.57;99144.02;1661519;85;21160;-63
2022/11/07 06:48:13;;;;;;;30.57;20.97;;;;;;;4.65;93.52;99138.85;1660126;85;21090;-63
2022/11/07 06:50:40;;;;;;;32.65;20.35;;;;;;;4.65;93.44;99137.56;1658424;85;20879;-64
2022/11/07 06:53:12;;;;;;;43.73;28.60;;;;;;;4.65;93.37;99134.97;1659805;86;21535;-63
2022/11/07 06:55:39;;;;;;;84.05;60.12;;;;;;;4.66;93.33;99131.48;1674228;85;20954;-64
2022/11/07 06:58:07;;;;;;;41.45;28.90;;;;;;;4.65;93.25;99125.92;1660667;85;20922;-63
2022/11/07 07:00:36;;;;;;;;;;;;;;;4.66;93.18;99126.30;1661050;85;21032;-63
2022/11/07 07:03:03;;;;;;;29.92;22.25;;;;;;;4.68;93.25;99127.11;1656011;85;20122;-63
2022/11/07 07:05:31;;;;;;;30.65;20.77;;;;;;;4.70;93.31;99134.38;1652642;86;24598;-64
2022/11/07 07:07:58;;;;;;;30.08;20.80;;;;;;;4.76;93.35;99140.22;1654113;86;21615;-64
2022/11/07 07:10:25;;;;;;;25.70;19.50;;;;;;;4.75;93.52;99139.84;1666773;85;21502;-64
2022/11/07 07:12:55;;;;;;;31.30;20.00;;;;;;;4.82;93.60;99151.69;1656166;85;21061;-64
2022/11/07 07:15:22;;;;;;;27.10;19.98;;;;;;;4.86;93.69;99146.80;1653315;85;21764;-64
2022/11/07 07:17:49;;;;;;;27.47;19.47;;;;;;;4.95;93.59;99142.59;1669342;85;20994;-63
2022/11/07 07:20:15;;;;;;;29.73;20.50;;;;;;;4.98;93.63;99139.91;1649234;85;21252;-63
2022/11/07 07:22:44;;;;;;;25.57;19.80;;;;;;;4.99;93.68;99116.20;1661418;85;21645;-64
2022/11/07 07:25:11;;;;;;;28.15;19.60;;;;;;;4.99;93.68;99116.20;1658658;86;21678;-64
2022/11/07 07:27:37;;;;;;;28.57;20.07;;;;;;;5.13;93.86;99131.64;1651736;86;21433;-64
2022/11/07 07:30:05;;;;;;;28.23;18.42;;;;;;;5.20;93.82;99121.91;1664205;84;20908;-64
2022/11/07 07:32:37;;;;;;;25.05;19.10;;;;;;;5.22;93.91;99121.86;1648633;85;21024;-63
2022/11/07 07:35:05;;;;;;;27.73;19.67;;;;;;;5.26;93.92;99119.09;1664911;84;20947;-63
2022/11/07 07:37:32;;;;;;;24.75;19.30;;;;;;;5.32;94.00;99125.80;1663129;86;21751;-64
2022/11/07 07:39:58;;;;;;;28.12;19.32;;;;;;;5.37;93.99;99118.72;1664280;85;21508;-63
2022/11/07 07:42:25;;;;;;;24.90;19.17;;;;;;;5.44;94.07;99116.32;1666697;85;20994;-63
2022/11/07 07:44:52;;;;;;;28.87;19.77;;;;;;;5.47;94.01;99104.55;1662437;85;21631;-63
2022/11/07 07:47:19;;;;;;;28.57;21.30;;;;;;;5.48;93.91;99116.59;1664336;85;20962;-64
2022/11/07 07:49:45;;;;;;;29.57;19.77;;;;;;;5.50;93.85;99098.42;1664831;85;22133;-64
2022/11/07 07:52:12;;;;;;;35.90;23.77;;;;;;;5.50;94.01;99101.85;1660339;85;21022;-64
2022/11/07 07:54:39;;;;;;;44.43;33.77;;;;;;;5.51;94.02;99094.92;1666808;86;20943;-64
2022/11/07 07:57:05;;;;;;;35.23;25.67;;;;;;;5.55;93.98;99096.52;1663818;86;21131;-64
2022/11/07 07:59:32;;;;;;;33.83;25.75;;;;;;;5.53;93.90;99096.56;1661684;86;20965;-65
2022/11/07 08:01:59;;;;;;;28.67;21.73;;;;;;;5.50;94.03;99088.91;1663468;85;21883;-64
2022/11/07 08:04:26;;;;;;;29.67;19.55;;;;;;;5.56;94.04;99096.44;1665963;85;21491;-64
2022/11/07 08:06:52;;;;;;;28.27;21.50;;;;;;;5.59;93.98;99093.73;1663057;85;21004;-64
2022/11/07 08:09:19;;;;;;;27.55;20.90;;;;;;;5.69;94.06;99098.59;1663824;85;21464;-64
2022/11/07 08:11:46;;;;;;;27.00;19.12;;;;;;;5.78;94.01;99103.42;1664525;86;21544;-64
2022/11/07 08:14:13;;;;;;;32.50;21.40;;;;;;;5.84;94.09;99103.19;1678556;85;21851;-64
2022/11/07 08:16:39;;;;;;;27.65;19.12;;;;;;;5.90;94.19;99106.00;1667159;86;20951;-64
2022/11/07 08:19:06;;;;;;;31.40;19.77;;;;;;;6.00;94.15;99109.52;1662424;85;20930;-64
2022/11/07 08:21:32;;;;;;;28.85;20.02;;;;;;;6.09;94.24;99110.06;1660392;84;21460;-64
2022/11/07 08:24:00;;;;;;;26.10;19.12;;;;;;;6.17;94.03;99104.97;1659915;85;20908;-64
2022/11/07 08:26:26;;;;;;;25.02;19.27;;;;;;;6.24;94.17;99097.78;1658441;86;21997;-64
2022/11/07 08:28:53;;;;;;;31.80;20.43;;;;;;;6.26;94.23;99110.25;1663123;85;21622;-64
2022/11/07 08:31:20;;;;;;;28.40;20.40;;;;;;;6.35;94.31;99109.03;1668959;85;20938;-66
2022/11/07 08:33:47;;;;;;;30.90;20.60;;;;;;;6.43;94.57;99105.23;1678768;84;21522;-66
2022/11/07 08:36:14;;;;;;;27.55;19.90;;;;;;;6.58;94.38;99106.80;1675409;84;21023;-66
2022/11/07 08:38:41;;;;;;;26.33;19.73;;;;;;;6.67;94.26;99106.45;1675758;85;22118;-64
2022/11/07 08:41:07;;;;;;;28.63;20.03;;;;;;;6.77;94.32;99109.50;1673369;84;20919;-64
2022/11/07 08:43:34;;;;;;;25.10;16.63;;;;;;;6.83;94.31;99095.80;1687027;83;20970;-65
2022/11/07 08:46:01;;;;;;;29.60;19.77;;;;;;;6.79;93.92;99076.09;1668966;85;21570;-65
2022/11/07 08:48:27;;;;;;;27.67;20.75;;;;;;;6.94;93.95;99093.59;1686600;84;21503;-65
2022/11/07 08:50:56;;;;;;;28.13;19.70;;;;;;;7.00;94.10;99089.06;1695832;83;21387;-64
2022/11/07 08:53:24;;;;;;;34.78;24.35;;;;;;;7.08;94.04;99099.95;1688388;84;20923;-66
2022/11/07 08:55:51;;;;;;;25.90;18.48;;;;;;;7.16;94.01;99110.86;1654344;85;20974;-66
2022/11/07 08:58:18;;;;;;;27.73;17.55;;;;;;;7.24;93.95;99110.54;1679714;85;20992;-65
2022/11/07 09:00:45;;;;;;;24.50;16.27;;;;;;;7.31;93.88;99115.41;1677340;85;21527;-65
2022/11/07 09:03:12;;;;;;;22.37;16.80;;;;;;;7.36;93.73;99121.68;1677037;84;20988;-64
2022/11/07 09:05:39;;;;;;;18.20;15.72;;;;;;;7.50;93.88;99119.77;1691274;83;21456;-64
2022/11/07 09:08:06;;;;;;;22.90;16.32;;;;;;;7.56;93.58;99112.57;1700176;84;20895;-65
2022/11/07 09:10:32;;;;;;;23.92;16.62;;;;;;;7.56;93.35;99116.90;1668549;84;20997;-65
2022/11/07 09:12:59;;;;;;;25.65;17.32;;;;;;;7.56;93.38;99120.80;1683053;83;20945;-65
2022/11/07 09:15:26;;;;;;;23.53;16.60;;;;;;;7.58;93.37;99125.48;1666957;85;21071;-65
2022/11/07 09:17:53;;;;;;;25.62;17.67;;;;;;;7.57;93.05;99126.40;1686275;84;21465;-65
2022/11/07 09:20:20;;;;;;;30.45;21.57;;;;;;;7.48;92.76;99120.29;1696747;83;20918;-65
2022/11/07 09:22:47;;;;;;;31.02;22.17;;;;;;;7.38;92.61;99119.41;1666440;86;20926;-64
2022/11/07 09:25:13;;;;;;;21.30;18.57;;;;;;;7.28;92.77;99118.14;1669391;84;20970;-65
2022/11/07 09:27:40;;;;;;;27.07;18.80;;;;;;;7.16;92.68;99110.86;1671582;84;21935;-66
2022/11/07 09:30:08;;;;;;;24.92;16.87;;;;;;;7.14;92.94;99110.94;1698250;83;20910;-65
2022/11/07 09:32:35;;;;;;;24.18;16.67;;;;;;;7.21;93.32;99114.56;1644569;85;21005;-66
2022/11/07 09:35:02;;;;;;;21.57;16.23;;;;;;;7.34;93.59;99112.67;1631580;85;20967;-65
2022/11/07 09:37:28;;;;;;;20.77;16.70;;;;;;;7.47;93.60;99104.33;1660357;86;20966;-65
2022/11/07 09:39:55;;;;;;;21.70;15.47;;;;;;;7.58;93.41;99104.69;1673724;84;22550;-66
2022/11/07 09:42:43;;;;;;;21.43;16.27;;;;;;;7.65;93.54;99108.72;1649566;85;20974;-65
2022/11/07 09:45:16;;;;;;;23.05;15.55;;;;;;;7.82;93.80;99104.89;1647822;86;21535;-65
2022/11/07 09:47:59;;;;;;;22.95;16.20;;;;;;;7.92;93.61;99114.39;1657188;85;20884;-65
2022/11/07 09:50:36;;;;;;;20.40;15.25;;;;;;;8.07;93.58;99111.09;1613594;87;20986;-65
2022/11/07 09:53:17;;;;;;;19.20;14.50;;;;;;;8.28;93.45;99103.19;1625248;87;27238;-65
2022/11/07 09:55:56;;;;;;;19.07;14.98;;;;;;;8.49;93.81;99101.36;1619284;87;21138;-65
2022/11/07 09:58:33;;;;;;;20.77;14.83;;;;;;;8.62;93.05;99106.33;1626361;85;21006;-65
2022/11/07 10:01:07;;;;;;;20.70;15.97;;;;;;;8.60;92.66;99109.48;1633793;86;20942;-65
2022/11/07 10:03:39;;;;;;;21.80;15.40;;;;;;;8.66;92.86;99116.98;1641103;85;21279;-65
2022/11/07 10:06:38;;;;;;;19.32;14.45;;;;;;;8.72;92.97;99108.87;1604160;87;21067;-65
2022/11/07 10:09:11;;;;;;;20.65;16.23;;;;;;;8.85;93.01;99108.25;1631543;86;21018;-65
2022/11/07 10:12:08;;;;;;;21.45;14.87;;;;;;;8.95;92.82;99099.07;1632463;87;21007;-66
2022/11/07 10:14:58;;;;;;;23.02;17.57;;;;;;;9.02;93.02;99108.27;1643446;85;20972;-65
2022/11/07 10:17:49;;;;;;;22.20;15.75;;;;;;;9.17;93.19;99104.88;1634029;87;21521;-66
2022/11/07 10:20:33;;;;;;;24.15;18.12;;;;;;;9.30;92.48;99092.50;1641203;85;21067;-65
2022/11/07 10:23:27;;;;;;;21.30;16.37;;;;;;;9.41;92.54;99085.00;1646985;85;20963;-66
2022/11/07 10:26:05;;;;;;;21.68;14.80;;;;;;;9.51;91.96;99095.77;1643820;85;20910;-66
2022/11/07 10:28:36;;;;;;;17.60;14.15;;;;;;;9.45;91.79;99098.23;1663860;85;20930;-66
2022/11/07 10:31:08;;;;;;;19.07;13.60;;;;;;;9.43;91.77;99092.25;1654323;85;20953;-66
2022/11/07 10:33:54;;;;;;;18.75;14.53;;;;;;;9.41;91.84;99089.73;1667611;84;21183;-66
2022/11/07 10:36:28;;;;;;;18.90;12.68;;;;;;;9.44;91.92;99086.14;1673221;85;21013;-66
2022/11/07 10:38:55;;;;;;;20.97;12.73;;;;;;;9.45;91.56;99093.02;1697994;83;20967;-66
2022/11/07 10:41:28;;;;;;;16.27;12.13;;;;;;;9.48;91.63;99092.85;1640756;86;20977;-66
2022/11/07 10:43:59;;;;;;;17.48;13.05;;;;;;;9.51;91.49;99095.30;1686264;83;20943;-66
2022/11/07 10:46:43;;;;;;;18.60;13.80;;;;;;;9.52;91.63;99097.00;1664505;85;21039;-66
2022/11/07 10:49:28;;;;;;;20.52;13.83;;;;;;;9.61;91.65;99096.50;1655613;84;20969;-68
2022/11/07 10:52:11;;;;;;;15.63;12.37;;;;;;;9.71;91.30;99096.00;1659471;84;20899;-66
2022/11/07 10:54:39;;;;;;;16.95;12.85;;;;;;;9.70;91.27;99104.76;1667450;85;20914;-66
2022/11/07 10:57:21;;;;;;;17.17;12.05;;;;;;;9.71;91.47;99104.66;1687959;84;21001;-66
2022/11/07 10:59:57;;;;;;;19.00;12.78;;;;;;;9.70;91.41;99099.55;1675983;85;21107;-66
2022/11/07 11:02:41;;;;;;;14.70;11.33;;;;;;;9.79;91.36;99114.69;1698068;84;20945;-65
2022/11/07 11:05:34;;;;;;;17.10;11.45;;;;;;;9.87;91.31;99109.90;1699308;83;20954;-65
2022/11/07 11:08:17;;;;;;;17.42;11.05;;;;;;;9.83;91.07;99105.76;1663814;85;20953;-65
2022/11/07 11:10:45;;;;;;;15.85;11.85;;;;;;;9.78;90.92;99107.80;1655081;85;20957;-65
2022/11/07 11:13:33;;;;;;;20.50;14.25;;;;;;;9.75;90.87;99103.59;1650040;85;21047;-66
2022/11/07 11:16:23;;;;;;;39.15;22.27;;;;;;;9.78;90.93;99103.42;1664507;84;20918;-66
2022/11/07 11:18:54;;;;;;;23.02;16.37;;;;;;;9.85;91.04;99109.13;1670247;84;20991;-66
2022/11/07 11:21:21;;;;;;;17.35;12.15;;;;;;;9.90;90.56;99096.69;1666575;84;20966;-66
2022/11/07 11:23:49;;;;;;;;;;;;;;;9.98;91.08;99097.12;1674806;85;20947;-66
2022/11/07 11:26:31;;;;;;;15.28;11.18;;;;;;;10.07;90.75;99096.60;1668835;85;21255;-66
2022/11/07 11:29:07;;;;;;;15.25;11.55;;;;;;;10.17;90.81;99089.59;1661770;84;20972;-65
2022/11/07 11:31:43;;;;;;;15.03;11.10;;;;;;;10.23;90.57;99093.16;1670448;85;21919;-66
2022/11/07 11:34:32;;;;;;;15.58;10.60;;;;;;;10.28;90.27;99085.95;1654762;85;21002;-66
2022/11/07 11:37:22;;;;;;;12.80;10.13;;;;;;;10.36;90.31;99088.11;1655676;86;20989;-66
2022/11/07 11:40:01;;;;;;;19.02;10.50;;;;;;;10.34;90.03;99085.60;1655692;85;21072;-65
2022/11/07 11:42:48;;;;;;;13.93;11.12;;;;;;;10.36;90.08;99088.95;1675844;85;20944;-66
2022/11/07 11:45:40;;;;;;;15.38;11.05;;;;;;;10.34;90.02;99081.69;1675991;85;20933;-66
2022/11/07 11:48:44;;;;;;;14.05;9.75;;;;;;;10.27;90.17;99076.42;1669152;84;20965;-66
2022/11/07 11:51:19;;;;;;;12.23;8.75;;;;;;;10.26;89.92;99083.86;1666253;84;20970;-65